createdAt,value
2018-05-23T00:01:57.707Z,92.21
2018-05-23T00:04:25.108Z,92.23
2018-05-23T00:06:52.539Z,92.37
2018-05-23T00:09:19.925Z,92.01
2018-05-23T00:11:47.299Z,91.43
2018-05-23T00:14:14.683Z,91.56
2018-05-23T00:16:42.881Z,91.43
2018-05-23T00:19:10.279Z,91.47
2018-05-23T00:21:37.652Z,91.78
2018-05-23T00:24:05.031Z,91.50
2018-05-23T00:26:32.433Z,91.46
2018-05-23T00:28:59.895Z,91.32
2018-05-23T00:31:27.268Z,90.92
2018-05-23T00:33:54.665Z,90.66
2018-05-23T00:36:22.053Z,91.04
2018-05-23T00:38:49.439Z,91.40
2018-05-23T00:41:16.830Z,91.78
2018-05-23T00:43:44.229Z,91.74
2018-05-23T00:46:11.625Z,91.84
2018-05-23T00:48:39.022Z,92.02
2018-05-23T00:51:06.411Z,92.26
2018-05-23T00:53:33.795Z,92.91
2018-05-23T00:56:01.172Z,93.53
2018-05-23T00:58:28.586Z,93.65
2018-05-23T01:00:55.958Z,93.42
2018-05-23T01:03:23.358Z,92.94
2018-05-23T01:05:50.752Z,92.60
2018-05-23T01:08:18.149Z,92.81
2018-05-23T01:10:45.552Z,93.18
2018-05-23T01:13:12.933Z,93.49
2018-05-23T01:15:40.315Z,93.67
2018-05-23T01:18:07.715Z,93.75
2018-05-23T01:20:35.106Z,92.54
2018-05-23T01:23:02.495Z,92.39
2018-05-23T01:25:29.904Z,92.49
2018-05-23T01:27:57.287Z,93.24
2018-05-23T01:30:24.680Z,93.39
2018-05-23T01:32:52.079Z,93.59
2018-05-23T01:35:19.463Z,93.62
2018-05-23T01:37:46.841Z,93.43
2018-05-23T01:40:14.232Z,92.73
2018-05-23T01:42:41.629Z,92.06
2018-05-23T01:45:09.039Z,92.01
2018-05-23T01:47:36.412Z,92.33
2018-05-23T01:50:03.805Z,92.76
2018-05-23T01:52:31.179Z,93.48
2018-05-23T01:54:58.576Z,93.50
2018-05-23T01:57:25.968Z,93.31
2018-05-23T01:59:53.392Z,93.00
2018-05-23T02:02:20.778Z,92.59
2018-05-23T02:04:48.167Z,92.76
2018-05-23T02:07:15.554Z,93.45
2018-05-23T02:09:42.943Z,93.73
2018-05-23T02:12:10.325Z,93.91
2018-05-23T02:14:37.768Z,94.21
2018-05-23T02:17:05.157Z,94.20
2018-05-23T02:19:32.558Z,93.96
2018-05-23T02:22:00.885Z,94.12
2018-05-23T02:24:28.293Z,94.54
2018-05-23T02:26:55.684Z,94.67
2018-05-23T02:29:23.080Z,94.70
2018-05-23T02:31:50.482Z,94.91
2018-05-23T02:34:17.856Z,95.01
2018-05-23T02:36:45.250Z,94.98
2018-05-23T02:39:12.659Z,94.83
2018-05-23T02:41:40.068Z,94.69
2018-05-23T02:44:07.461Z,94.87
2018-05-23T02:46:34.864Z,95.07
2018-05-23T02:49:02.267Z,95.15
2018-05-23T02:51:29.636Z,95.15
2018-05-23T02:53:57.035Z,95.04
2018-05-23T02:56:24.419Z,94.95
2018-05-23T02:58:51.814Z,94.81
2018-05-23T03:01:19.204Z,94.75
2018-05-23T03:03:46.602Z,94.56
2018-05-23T03:06:13.972Z,94.51
2018-05-23T03:08:41.375Z,94.60
2018-05-23T03:11:08.782Z,94.62
2018-05-23T03:13:36.160Z,94.67
2018-05-23T03:16:03.561Z,95.04
2018-05-23T03:18:30.949Z,95.21
2018-05-23T03:20:58.344Z,95.17
2018-05-23T03:23:25.751Z,95.03
2018-05-23T03:25:53.168Z,94.87
2018-05-23T03:28:20.529Z,94.83
2018-05-23T03:30:47.920Z,94.85
2018-05-23T03:33:15.304Z,94.97
2018-05-23T03:35:42.705Z,94.93
2018-05-23T03:38:10.086Z,94.80
2018-05-23T03:40:37.480Z,94.57
2018-05-23T03:43:04.843Z,94.33
2018-05-23T03:45:32.245Z,94.36
2018-05-23T03:47:59.619Z,94.51
2018-05-23T03:50:27.007Z,94.49
2018-05-23T03:52:54.403Z,94.36
2018-05-23T03:55:21.867Z,94.39
2018-05-23T03:57:49.168Z,94.63
2018-05-23T04:00:28.112Z,94.74
2018-05-23T04:03:07.121Z,94.54
2018-05-23T04:05:46.334Z,94.31
2018-05-23T04:08:13.712Z,94.35
2018-05-23T04:10:41.137Z,94.32
2018-05-23T04:13:08.501Z,94.18
2018-05-23T04:15:35.911Z,94.21
2018-05-23T04:18:03.313Z,94.11
2018-05-23T04:20:30.724Z,93.94
2018-05-23T04:22:58.109Z,93.72
2018-05-23T04:25:25.502Z,93.57
2018-05-23T04:27:52.877Z,93.59
2018-05-23T04:30:20.264Z,93.66
2018-05-23T04:32:47.648Z,93.48
2018-05-23T04:35:15.038Z,93.68
2018-05-23T04:37:42.461Z,93.65
2018-05-23T04:40:09.848Z,93.68
2018-05-23T04:42:37.232Z,93.94
2018-05-23T04:45:04.619Z,93.85
2018-05-23T04:47:32.001Z,93.62
2018-05-23T04:49:59.380Z,93.56
2018-05-23T04:52:26.756Z,93.40
2018-05-23T04:54:54.149Z,92.84
2018-05-23T04:57:21.537Z,92.82
2018-05-23T04:59:48.919Z,92.86
2018-05-23T05:02:16.309Z,92.29
2018-05-23T05:04:43.713Z,91.87
2018-05-23T05:07:11.080Z,92.27
2018-05-23T05:09:38.477Z,93.08
2018-05-23T05:12:05.851Z,93.62
2018-05-23T05:14:33.257Z,93.44
2018-05-23T05:17:00.659Z,93.16
2018-05-23T05:19:28.052Z,92.89
2018-05-23T05:21:55.441Z,92.52
2018-05-23T05:24:22.819Z,92.26
2018-05-23T05:26:50.208Z,92.62
2018-05-23T05:29:17.614Z,93.23
2018-05-23T05:31:45.045Z,93.37
2018-05-23T05:34:12.411Z,93.14
2018-05-23T05:36:39.810Z,92.96
2018-05-23T05:39:07.208Z,93.20
2018-05-23T05:41:34.613Z,93.43
2018-05-23T05:44:02.014Z,93.43
2018-05-23T05:46:29.403Z,93.19
2018-05-23T05:48:57.703Z,92.60
2018-05-23T05:51:25.089Z,91.33
2018-05-23T05:53:53.669Z,89.76
2018-05-23T05:56:21.094Z,87.94
2018-05-23T05:58:48.470Z,87.30
2018-05-23T06:01:15.874Z,87.68
2018-05-23T06:03:43.255Z,88.17
2018-05-23T06:06:10.653Z,89.98
2018-05-23T06:08:38.027Z,91.01
2018-05-23T06:11:05.411Z,92.38
2018-05-23T06:13:32.798Z,92.85
2018-05-23T06:16:00.187Z,92.88
2018-05-23T06:18:27.576Z,92.51
2018-05-23T06:20:55.036Z,92.14
2018-05-23T06:23:22.495Z,91.80
2018-05-23T06:25:49.880Z,91.07
2018-05-23T06:28:17.267Z,89.64
2018-05-23T06:30:44.659Z,85.94
2018-05-23T06:33:12.042Z,84.56
2018-05-23T06:35:39.436Z,84.25
2018-05-23T06:38:06.811Z,83.92
2018-05-23T06:40:34.202Z,83.10
2018-05-23T06:43:01.609Z,83.05
2018-05-23T06:45:29.003Z,82.55
2018-05-23T06:47:56.434Z,82.52
2018-05-23T06:50:23.844Z,82.39
2018-05-23T06:52:51.233Z,82.38
2018-05-23T06:55:18.621Z,82.58
2018-05-23T06:57:46.002Z,82.37
2018-05-23T07:00:13.407Z,81.43
2018-05-23T07:02:40.779Z,81.02
2018-05-23T07:05:08.191Z,81.54
2018-05-23T07:07:35.580Z,80.97
2018-05-23T07:10:02.959Z,81.06
2018-05-23T07:12:30.348Z,81.32
2018-05-23T07:14:57.730Z,81.05
2018-05-23T07:17:25.125Z,80.54
2018-05-23T07:19:52.502Z,80.47
2018-05-23T07:22:19.958Z,79.69
2018-05-23T07:24:47.382Z,79.87
2018-05-23T07:27:14.812Z,80.56
2018-05-23T07:29:42.201Z,80.08
2018-05-23T07:32:09.586Z,80.34
2018-05-23T07:34:36.968Z,79.94
2018-05-23T07:37:04.372Z,79.98
2018-05-23T07:39:31.752Z,80.07
2018-05-23T07:41:59.209Z,80.15
2018-05-23T07:44:26.582Z,78.61
2018-05-23T07:46:53.971Z,78.35
2018-05-23T07:49:21.353Z,78.34
2018-05-23T07:51:48.766Z,77.68
2018-05-23T07:54:16.145Z,77.92
2018-05-23T07:56:43.580Z,76.75
2018-05-23T07:59:10.939Z,76.97
2018-05-23T08:01:38.323Z,76.97
2018-05-23T08:04:05.782Z,76.89
2018-05-23T08:06:33.159Z,76.12
2018-05-23T08:09:00.553Z,76.51
2018-05-23T08:11:27.936Z,77.02
2018-05-23T08:13:55.320Z,75.25
2018-05-23T08:16:22.743Z,75.09
2018-05-23T08:18:50.120Z,74.23
2018-05-23T08:21:17.508Z,73.32
2018-05-23T08:23:44.892Z,73.38
2018-05-23T08:26:12.293Z,72.43
2018-05-23T08:28:39.667Z,73.31
2018-05-23T08:31:07.056Z,72.29
2018-05-23T08:33:34.460Z,72.22
2018-05-23T08:36:01.848Z,71.26
2018-05-23T08:38:29.228Z,71.18
2018-05-23T08:40:56.611Z,70.62
2018-05-23T08:43:24.016Z,69.99
2018-05-23T08:45:51.414Z,69.37
2018-05-23T08:48:18.805Z,67.47
2018-05-23T08:50:46.205Z,68.14
2018-05-23T08:53:13.589Z,68.81
2018-05-23T08:55:40.972Z,68.95
2018-05-23T08:58:08.352Z,68.47
2018-05-23T09:00:35.737Z,67.64
2018-05-23T09:03:03.150Z,68.22
2018-05-23T09:05:30.645Z,69.51
2018-05-23T09:07:58.032Z,66.94
2018-05-23T09:10:25.411Z,66.78
2018-05-23T09:12:52.807Z,65.45
2018-05-23T09:15:20.184Z,65.95
2018-05-23T09:17:47.585Z,63.98
2018-05-23T09:20:14.963Z,65.28
2018-05-23T09:22:42.361Z,63.98
2018-05-23T09:25:09.744Z,64.78
2018-05-23T09:27:37.140Z,64.64
2018-05-23T09:30:04.561Z,63.60
2018-05-23T09:32:31.945Z,62.63
2018-05-23T09:34:59.330Z,62.45
2018-05-23T09:37:26.728Z,62.66
2018-05-23T09:39:54.108Z,62.43
2018-05-23T09:42:21.499Z,62.06
2018-05-23T09:44:48.889Z,63.11
2018-05-23T09:47:16.284Z,63.32
2018-05-23T09:49:43.670Z,61.26
2018-05-23T09:52:11.072Z,60.99
2018-05-23T09:54:38.452Z,60.62
2018-05-23T09:57:05.860Z,59.24
2018-05-23T09:59:33.242Z,59.97
2018-05-23T10:02:00.636Z,57.44
2018-05-23T10:04:28.030Z,58.34
2018-05-23T10:06:55.419Z,57.55
2018-05-23T10:09:22.803Z,58.78
2018-05-23T10:11:50.204Z,59.38
2018-05-23T10:14:17.574Z,59.43
2018-05-23T10:16:44.963Z,58.68
2018-05-23T10:19:12.343Z,58.17
2018-05-23T10:21:39.734Z,58.90
2018-05-23T10:24:07.139Z,58.80
2018-05-23T10:26:34.526Z,58.13
2018-05-23T10:29:01.922Z,57.15
2018-05-23T10:31:29.314Z,57.25
2018-05-23T10:33:56.711Z,57.24
2018-05-23T10:36:24.105Z,57.73
2018-05-23T10:38:51.476Z,58.16
2018-05-23T10:41:18.912Z,58.28
2018-05-23T10:43:46.291Z,59.19
2018-05-23T10:46:13.688Z,59.58
2018-05-23T10:48:41.068Z,58.46
2018-05-23T10:51:08.463Z,58.82
2018-05-23T10:53:35.843Z,58.29
2018-05-23T10:56:03.237Z,56.89
2018-05-23T10:58:30.622Z,57.39
2018-05-23T11:00:58.026Z,57.27
2018-05-23T11:03:25.395Z,57.41
2018-05-23T11:05:52.839Z,56.63
2018-05-23T11:08:20.162Z,58.26
2018-05-23T11:10:47.538Z,56.73
2018-05-23T11:13:14.925Z,57.42
2018-05-23T11:15:42.309Z,56.14
2018-05-23T11:18:10.516Z,56.99
2018-05-23T11:20:37.897Z,57.67
2018-05-23T11:23:05.309Z,56.33
2018-05-23T11:25:32.723Z,56.06
2018-05-23T11:28:00.152Z,56.65
2018-05-23T11:30:27.547Z,56.68
2018-05-23T11:32:54.960Z,57.27
2018-05-23T11:35:22.348Z,56.79
2018-05-23T11:37:49.732Z,56.77
2018-05-23T11:40:17.107Z,56.47
2018-05-23T11:42:44.497Z,56.65
2018-05-23T11:45:11.891Z,57.15
2018-05-23T11:47:39.277Z,56.02
2018-05-23T11:50:06.668Z,54.06
2018-05-23T11:52:34.081Z,53.98
2018-05-23T11:55:01.453Z,55.80
2018-05-23T11:57:28.852Z,55.83
2018-05-23T11:59:56.242Z,55.31
2018-05-23T12:02:23.636Z,55.37
2018-05-23T12:04:51.024Z,55.54
2018-05-23T12:07:18.428Z,56.11
2018-05-23T12:09:45.806Z,54.08
2018-05-23T12:12:13.196Z,53.17
2018-05-23T12:14:40.575Z,54.04
2018-05-23T12:17:07.966Z,52.90
2018-05-23T12:19:35.344Z,53.37
2018-05-23T12:22:02.733Z,53.93
2018-05-23T12:24:30.115Z,53.07
2018-05-23T12:26:57.504Z,53.29
2018-05-23T12:29:24.888Z,53.58
2018-05-23T12:31:52.292Z,52.96
2018-05-23T12:34:19.677Z,52.61
2018-05-23T12:36:47.107Z,53.17
2018-05-23T12:39:14.489Z,52.75
2018-05-23T12:41:41.904Z,53.30
2018-05-23T12:44:09.299Z,53.37
2018-05-23T12:46:36.698Z,51.86
2018-05-23T12:49:04.077Z,51.02
2018-05-23T12:51:31.464Z,50.61
2018-05-23T12:53:58.849Z,49.14
2018-05-23T12:56:26.236Z,50.24
2018-05-23T12:58:53.619Z,49.72
2018-05-23T13:01:21.005Z,48.24
2018-05-23T13:03:48.383Z,49.89
2018-05-23T13:06:15.778Z,50.02
2018-05-23T13:08:43.163Z,47.91
2018-05-23T13:11:10.541Z,47.77
2018-05-23T13:13:37.936Z,47.82
2018-05-23T13:16:05.325Z,47.06
2018-05-23T13:18:32.715Z,44.18
2018-05-23T13:21:00.096Z,44.94
2018-05-23T13:23:27.488Z,44.97
2018-05-23T13:25:54.931Z,45.83
2018-05-23T13:28:22.261Z,43.24
2018-05-23T13:30:49.658Z,43.86
2018-05-23T13:33:17.064Z,44.28
2018-05-23T13:35:44.456Z,44.42
2018-05-23T13:38:11.842Z,44.89
2018-05-23T13:40:39.220Z,45.21
2018-05-23T13:43:06.603Z,45.16
2018-05-23T13:45:34.975Z,45.46
2018-05-23T13:48:02.356Z,45.54
2018-05-23T13:50:29.737Z,45.73
2018-05-23T13:52:57.126Z,44.92
2018-05-23T13:55:24.508Z,44.60
2018-05-23T13:57:51.919Z,44.68
2018-05-23T14:00:19.313Z,44.12
2018-05-23T14:02:46.708Z,44.66
2018-05-23T14:05:14.084Z,45.35
2018-05-23T14:07:42.290Z,45.34
2018-05-23T14:10:09.687Z,45.24
2018-05-23T14:12:37.093Z,45.42
2018-05-23T14:15:04.475Z,44.17
2018-05-23T14:17:32.766Z,44.36
2018-05-23T14:20:00.159Z,43.73
2018-05-23T14:22:27.551Z,44.11
2018-05-23T14:24:54.953Z,43.75
2018-05-23T14:27:22.363Z,43.73
2018-05-23T14:29:49.764Z,43.96
2018-05-23T14:32:17.155Z,44.07
2018-05-23T14:34:44.532Z,44.56
2018-05-23T14:37:11.915Z,44.25
2018-05-23T14:39:39.301Z,45.40
2018-05-23T14:42:06.687Z,46.02
2018-05-23T14:44:34.071Z,47.19
2018-05-23T14:47:01.467Z,48.58
2018-05-23T14:49:28.845Z,49.05
2018-05-23T14:51:56.252Z,49.65
2018-05-23T14:54:23.635Z,49.21
2018-05-23T14:56:51.024Z,49.94
2018-05-23T14:59:18.412Z,50.52
2018-05-23T15:01:45.796Z,52.22
2018-05-23T15:04:13.197Z,54.75
2018-05-23T15:06:40.594Z,52.93
2018-05-23T15:09:07.987Z,53.25
2018-05-23T15:11:35.368Z,54.08
2018-05-23T15:14:02.763Z,53.98
2018-05-23T15:16:30.152Z,53.63
2018-05-23T15:18:57.544Z,54.31
2018-05-23T15:21:24.950Z,55.53
2018-05-23T15:23:52.334Z,55.72
2018-05-23T15:26:19.755Z,56.24
2018-05-23T15:28:47.146Z,56.76
2018-05-23T15:31:14.535Z,58.48
2018-05-23T15:33:41.911Z,58.82
2018-05-23T15:36:09.312Z,59.64
2018-05-23T15:38:36.691Z,59.56
2018-05-23T15:41:04.076Z,59.12
2018-05-23T15:43:31.463Z,59.29
2018-05-23T15:45:58.843Z,59.73
2018-05-23T15:48:26.228Z,60.11
2018-05-23T15:50:54.499Z,62.13
2018-05-23T15:53:21.896Z,62.99
2018-05-23T15:55:49.268Z,63.88
2018-05-23T15:58:16.671Z,65.16
2018-05-23T16:00:44.047Z,65.82
2018-05-23T16:03:11.432Z,66.83
2018-05-23T16:05:38.819Z,67.22
2018-05-23T16:08:06.223Z,68.92
2018-05-23T16:10:33.600Z,69.62
2018-05-23T16:13:01.004Z,69.45
2018-05-23T16:15:28.374Z,69.56
2018-05-23T16:17:55.766Z,69.89
2018-05-23T16:20:23.144Z,70.22
2018-05-23T16:22:50.541Z,70.97
2018-05-23T16:25:17.922Z,71.44
2018-05-23T16:27:45.334Z,72.23
2018-05-23T16:30:12.719Z,71.74
2018-05-23T16:32:40.117Z,72.04
2018-05-23T16:35:07.490Z,72.00
2018-05-23T16:37:34.874Z,72.84
2018-05-23T16:40:02.253Z,73.45
2018-05-23T16:42:29.651Z,73.58
2018-05-23T16:44:57.033Z,74.24
2018-05-23T16:47:24.420Z,73.91
2018-05-23T16:49:51.812Z,74.74
2018-05-23T16:52:19.225Z,74.82
2018-05-23T16:54:46.599Z,75.31
2018-05-23T16:57:13.996Z,74.97
2018-05-23T16:59:41.384Z,75.56
2018-05-23T17:02:09.400Z,76.03
2018-05-23T17:04:36.793Z,76.10
2018-05-23T17:07:04.530Z,76.79
2018-05-23T17:09:32.655Z,78.19
2018-05-23T17:12:00.032Z,78.45
2018-05-23T17:14:27.437Z,78.28
2018-05-23T17:16:54.812Z,78.45
2018-05-23T17:19:22.219Z,78.16
2018-05-23T17:21:49.601Z,78.12
2018-05-23T17:24:16.996Z,78.03
2018-05-23T17:26:44.384Z,78.23
2018-05-23T17:29:11.781Z,78.13
2018-05-23T17:31:39.147Z,77.29
2018-05-23T17:34:06.545Z,77.82
2018-05-23T17:36:34.236Z,77.33
2018-05-23T17:39:01.620Z,78.56
2018-05-23T17:41:29.023Z,77.43
2018-05-23T17:43:56.426Z,77.48
2018-05-23T17:46:23.838Z,76.01
2018-05-23T17:48:51.235Z,74.41
2018-05-23T17:51:18.629Z,74.29
2018-05-23T17:53:46.008Z,72.13
2018-05-23T17:56:13.412Z,73.09
2018-05-23T17:58:40.810Z,72.60
2018-05-23T18:01:08.213Z,72.20
2018-05-23T18:03:35.583Z,73.29
2018-05-23T18:06:03.171Z,73.17
2018-05-23T18:08:30.364Z,73.30
2018-05-23T18:10:57.756Z,73.36
2018-05-23T18:13:25.145Z,73.65
2018-05-23T18:15:52.552Z,74.47
2018-05-23T18:18:19.963Z,75.56
2018-05-23T18:20:47.352Z,75.36
2018-05-23T18:23:14.737Z,75.94
2018-05-23T18:25:42.129Z,76.27
2018-05-23T18:28:09.524Z,76.05
2018-05-23T18:30:36.915Z,76.00
2018-05-23T18:33:04.297Z,75.92
2018-05-23T18:35:31.681Z,75.75
2018-05-23T18:37:59.066Z,76.06
2018-05-23T18:40:26.464Z,75.92
2018-05-23T18:42:53.851Z,76.75
2018-05-23T18:45:23.247Z,76.39
2018-05-23T18:47:52.546Z,76.35
2018-05-23T18:50:21.604Z,76.82
2018-05-23T18:52:50.068Z,76.02
2018-05-23T18:55:20.631Z,76.19
2018-05-23T18:57:58.138Z,76.95
2018-05-23T19:00:35.754Z,76.57
2018-05-23T19:03:15.867Z,76.32
2018-05-23T19:05:44.467Z,75.99
2018-05-23T19:08:14.989Z,75.82
2018-05-23T19:10:43.046Z,75.86
2018-05-23T19:13:12.748Z,76.31
2018-05-23T19:15:42.673Z,76.73
2018-05-23T19:18:10.567Z,76.81
2018-05-23T19:20:38.408Z,77.04
2018-05-23T19:23:06.599Z,77.00
2018-05-23T19:25:34.269Z,76.68
2018-05-23T19:28:29.851Z,76.22
2018-05-23T19:30:58.529Z,76.42
2018-05-23T19:33:29.381Z,76.97
2018-05-23T19:35:57.913Z,77.06
2018-05-23T19:38:29.228Z,76.91
2018-05-23T19:40:59.273Z,76.79
2018-05-23T19:43:27.770Z,76.71
2018-05-23T19:45:56.209Z,75.94
2018-05-23T19:48:25.942Z,75.70
2018-05-23T19:50:54.483Z,75.59
2018-05-23T19:53:24.174Z,75.37
2018-05-23T19:55:51.740Z,75.30
2018-05-23T19:58:19.178Z,75.54
2018-05-23T20:00:49.507Z,75.19
2018-05-23T20:03:17.053Z,75.21
2018-05-23T20:05:50.054Z,75.60
2018-05-23T20:08:18.235Z,74.74
2018-05-23T20:10:46.012Z,75.25
2018-05-23T20:13:13.795Z,75.27
2018-05-23T20:15:43.432Z,75.19
2018-05-23T20:18:12.583Z,75.03
2018-05-23T20:20:40.913Z,74.71
2018-05-23T20:23:09.780Z,74.79
2018-05-23T20:25:39.360Z,74.77
2018-05-23T20:28:12.249Z,74.44
2018-05-23T20:30:39.701Z,74.24
2018-05-23T20:33:09.023Z,73.93
2018-05-23T20:35:37.785Z,74.25
2018-05-23T20:38:05.738Z,74.28
2018-05-23T20:40:35.760Z,73.96
2018-05-23T20:43:04.744Z,73.55
2018-05-23T20:45:34.643Z,73.32
2018-05-23T20:48:04.389Z,73.71
2018-05-23T20:50:34.952Z,74.44
2018-05-23T20:53:02.990Z,73.97
2018-05-23T20:55:31.299Z,73.80
2018-05-23T20:58:02.645Z,73.88
2018-05-23T21:00:30.055Z,73.79
2018-05-23T21:02:58.582Z,73.44
2018-05-23T21:05:28.400Z,73.90
2018-05-23T21:07:55.776Z,73.63
2018-05-23T21:10:24.175Z,73.79
2018-05-23T21:12:53.122Z,73.54
2018-05-23T21:15:20.633Z,73.90
2018-05-23T21:17:48.759Z,73.58
2018-05-23T21:20:18.826Z,73.61
2018-05-23T21:22:46.807Z,74.16
2018-05-23T21:25:14.939Z,75.13
2018-05-23T21:27:43.389Z,74.97
2018-05-23T21:30:11.060Z,75.37
2018-05-23T21:32:39.085Z,76.57
2018-05-23T21:35:07.909Z,78.48
2018-05-23T21:37:35.643Z,79.40
2018-05-23T21:40:03.952Z,81.71
2018-05-23T21:42:31.645Z,82.30
2018-05-23T21:45:00.273Z,83.02
2018-05-23T21:47:30.619Z,83.08
2018-05-23T21:49:59.335Z,84.94
2018-05-23T21:52:27.173Z,85.60
2018-05-23T21:55:03.340Z,85.33
2018-05-23T21:57:34.657Z,85.22
2018-05-23T22:00:02.265Z,86.19
2018-05-23T22:02:30.446Z,86.00
2018-05-23T22:04:58.619Z,86.30
2018-05-23T22:07:27.001Z,87.93
2018-05-23T22:09:55.594Z,88.35
2018-05-23T22:12:23.384Z,87.87
2018-05-23T22:14:51.396Z,88.61
2018-05-23T22:17:20.800Z,88.63
2018-05-23T22:20:07.840Z,88.18
2018-05-23T22:22:43.413Z,84.51
2018-05-23T22:25:22.358Z,86.89
2018-05-23T22:27:54.003Z,87.15
2018-05-23T22:30:21.548Z,86.12
2018-05-23T22:32:53.873Z,86.12
2018-05-23T22:35:28.376Z,86.08
2018-05-23T22:37:55.757Z,84.77
2018-05-23T22:40:23.153Z,83.11
2018-05-23T22:42:50.546Z,83.70
2018-05-23T22:45:18.103Z,80.25
2018-05-23T22:47:45.469Z,77.83
2018-05-23T22:50:12.880Z,77.44
2018-05-23T22:52:40.263Z,77.33
2018-05-23T22:55:07.672Z,76.49
2018-05-23T22:57:35.103Z,77.09
2018-05-23T23:00:02.568Z,77.14
2018-05-23T23:02:29.945Z,76.78
2018-05-23T23:04:58.001Z,76.79
2018-05-23T23:07:25.389Z,78.60
2018-05-23T23:09:53.856Z,79.48
2018-05-23T23:12:21.245Z,79.62
2018-05-23T23:14:48.644Z,79.62
2018-05-23T23:17:16.108Z,79.35
2018-05-23T23:19:43.499Z,78.25
2018-05-23T23:22:10.873Z,77.50
2018-05-23T23:24:38.295Z,77.52
2018-05-23T23:27:05.690Z,77.74
2018-05-23T23:29:33.112Z,76.72
2018-05-23T23:32:00.493Z,77.19
2018-05-23T23:34:27.880Z,78.45
2018-05-23T23:36:55.270Z,81.14
2018-05-23T23:39:22.664Z,82.06
2018-05-23T23:41:50.866Z,82.15
2018-05-23T23:44:18.278Z,80.14
2018-05-23T23:46:45.684Z,79.26
2018-05-23T23:49:13.101Z,79.97
2018-05-23T23:51:40.734Z,83.69
2018-05-23T23:54:07.961Z,85.17
2018-05-23T23:56:35.284Z,85.87
2018-05-23T23:59:02.694Z,85.77
